< < Back
Terminal Aerodrome Forecast


Current Version              Previous Versions:   1  2  3  4  5  6  7  8  9  

Terminal Aerodrome Forecast

620
FTUS42 KFFC 262328
TAFAHN
TAF
KAHN 262328Z 2700/2724 32012G20KT P6SM BKN250
     FM270100 33008KT P6SM BKN250
     FM270600 33003KT P6SM SCT015 BKN025
     FM271000 05006KT P6SM BKN015
     FM271500 02005KT P6SM SCT035 SCT200=

Latest METAR

569
SAUS70 KWBC 270200
MTRAHN
METAR KAHN 270151Z AUTO 34005KT 10SM CLR 21/12 A2972 RMK AO2 SLP059
T02060117


USA.gov is the U.S. government's official web portal to all federal, state and local government web resources and services.